Time;durP1;ratioP1;P1;durP2;ratioP2;P2;SDS_P1;SDS_P2;PMS_P1;PMS_P2;Temp;Humidity;BMP_temperature;BMP_pressure;BME280_temperature;BME280_humidity;BME280_pressure;Samples;Min_cycle;Max_cycle;Signal;HPM_P1;HPM_P2
2022/05/17 00:02:03;;;;;;;19.67;7.10;;;16.10;99.90;;;;;;5092775;28;20052;-71
2022/05/17 00:04:29;;;;;;;24.53;8.07;;;16.10;99.90;;;;;;5092353;28;20048;-70
2022/05/17 00:06:55;;;;;;;22.87;8.13;;;;;;;;;;5092907;28;20290;-71
2022/05/17 00:09:21;;;;;;;23.70;7.83;;;16.00;99.90;;;;;;5092249;28;20472;-71
2022/05/17 00:11:48;;;;;;;22.70;7.40;;;15.90;99.90;;;;;;5092934;28;20055;-69
2022/05/17 00:14:15;;;;;;;26.53;7.87;;;16.00;99.90;;;;;;5092368;28;20051;-70
2022/05/17 00:16:42;;;;;;;24.93;9.37;;;15.90;99.90;;;;;;5092742;28;20048;-70
2022/05/17 00:19:09;;;;;;;25.23;8.60;;;15.90;99.90;;;;;;5092329;28;20208;-71
2022/05/17 00:21:36;;;;;;;22.80;10.00;;;15.90;99.90;;;;;;5092772;28;20290;-71
2022/05/17 00:24:03;;;;;;;21.17;8.40;;;15.90;99.90;;;;;;5091465;28;20048;-71
2022/05/17 00:26:29;;;;;;;26.40;9.07;;;15.80;99.90;;;;;;5091308;28;20765;-71
2022/05/17 00:28:54;;;;;;;21.87;8.40;;;15.80;99.90;;;;;;5092507;28;20270;-71
2022/05/17 00:31:20;;;;;;;23.67;9.10;;;15.80;99.90;;;;;;5091056;28;20040;-71
2022/05/17 00:33:47;;;;;;;25.17;9.20;;;15.80;99.90;;;;;;5092306;28;20087;-71
2022/05/17 00:36:13;;;;;;;24.63;9.50;;;15.80;99.90;;;;;;5092268;28;20289;-72
2022/05/17 00:38:38;;;;;;;20.43;8.33;;;15.70;99.90;;;;;;5092357;28;20301;-71
2022/05/17 00:41:04;;;;;;;22.77;9.80;;;15.70;99.90;;;;;;5092404;28;20123;-71
2022/05/17 00:46:27;;;;;;;28.23;9.33;;;;;;;;;;5091929;28;20138;-71
2022/05/17 00:48:54;;;;;;;23.93;9.23;;;;;;;;;;5092444;28;20336;-71
2022/05/17 00:51:21;;;;;;;24.10;8.93;;;;;;;;;;5090917;28;20290;-71
2022/05/17 00:53:48;;;;;;;24.37;8.73;;;;;;;;;;5092303;28;20778;-71
2022/05/17 00:56:17;;;;;;;26.80;8.80;;;;;;;;;;5092193;28;20285;-71
2022/05/17 00:58:49;;;;;;;22.10;8.37;;;;;;;;;;5095145;28;20654;-71
2022/05/17 01:01:20;;;;;;;21.60;8.53;;;;;;;;;;5095763;28;20087;-74
2022/05/17 01:03:50;;;;;;;20.93;9.30;;;;;;;;;;5095894;28;20451;-71
2022/05/17 01:06:17;;;;;;;17.97;8.83;;;;;;;;;;5095616;28;20684;-71
2022/05/17 01:08:43;;;;;;;22.73;8.13;;;;;;;;;;5095726;28;20310;-71
2022/05/17 01:11:09;;;;;;;18.63;8.40;;;;;;;;;;5094571;28;20336;-71
2022/05/17 01:16:22;;;;;;;21.03;8.13;;;;;;;;;;5095546;28;20290;-71
2022/05/17 01:18:49;;;;;;;22.30;7.53;;;;;;;;;;5095494;28;20389;-71
2022/05/17 01:21:15;;;;;;;18.13;7.10;;;;;;;;;;5094559;28;20282;-71
2022/05/17 01:23:42;;;;;;;21.17;7.70;;;;;;;;;;5095190;28;20051;-71
2022/05/17 01:26:11;;;;;;;23.00;8.57;;;;;;;;;;5095400;28;20301;-71
2022/05/17 01:28:37;;;;;;;20.83;7.93;;;;;;;;;;5095129;28;20282;-72
2022/05/17 01:31:04;;;;;;;23.97;8.10;;;;;;;;;;5095370;28;20306;-71
2022/05/17 01:33:32;;;;;;;20.10;7.30;;;;;;;;;;5094893;28;20427;-71
2022/05/17 01:35:58;;;;;;;21.13;7.93;;;;;;;;;;5095234;28;20840;-71
2022/05/17 01:38:24;;;;;;;23.10;8.53;;;;;;;;;;5093447;28;20800;-71
2022/05/17 01:40:50;;;;;;;24.40;9.07;;;;;;;;;;5094952;28;20285;-71
2022/05/17 01:43:16;;;;;;;25.07;8.83;;;;;;;;;;5095280;28;20285;-71
2022/05/17 01:45:42;;;;;;;22.20;7.67;;;;;;;;;;5093659;28;20290;-71
2022/05/17 01:48:09;;;;;;;21.93;7.97;;;;;;;;;;5094895;28;20286;-72
2022/05/17 01:50:35;;;;;;;22.13;8.40;;;;;;;;;;5093698;28;20297;-71
2022/05/17 01:53:01;;;;;;;25.60;7.13;;;15.30;99.90;;;;;;5094741;28;20282;-71
2022/05/17 01:55:27;;;;;;;21.90;8.80;;;15.30;99.90;;;;;;5094636;28;20772;-71
2022/05/17 01:57:52;;;;;;;17.77;6.67;;;15.40;99.90;;;;;;5094783;28;20467;-71
2022/05/17 02:00:23;;;;;;;22.50;9.10;;;15.30;99.90;;;;;;5094702;28;20044;-71
2022/05/17 02:02:50;;;;;;;20.13;7.33;;;15.20;99.90;;;;;;5095223;28;20040;-71
2022/05/17 02:05:18;;;;;;;21.07;7.50;;;15.20;99.90;;;;;;5094513;28;20286;-72
2022/05/17 02:07:44;;;;;;;17.83;7.23;;;15.30;99.90;;;;;;5093900;28;20293;-71
2022/05/17 02:10:10;;;;;;;19.77;7.23;;;15.20;99.90;;;;;;5094673;28;20294;-71
2022/05/17 02:12:36;;;;;;;20.90;7.67;;;15.20;99.90;;;;;;5094118;28;20293;-72
2022/05/17 02:15:05;;;;;;;21.60;7.37;;;15.10;99.90;;;;;;5093779;28;20290;-71
2022/05/17 02:17:31;;;;;;;17.33;7.00;;;15.10;99.90;;;;;;5094084;28;20438;-71
2022/05/17 02:19:58;;;;;;;21.67;7.23;;;15.10;99.90;;;;;;5094304;28;20286;-72
2022/05/17 02:22:24;;;;;;;21.87;7.07;;;15.10;99.90;;;;;;5094219;28;20427;-72
2022/05/17 02:24:50;;;;;;;17.20;7.17;;;15.20;99.90;;;;;;5093369;28;20742;-71
2022/05/17 02:27:16;;;;;;;16.27;6.63;;;15.10;99.90;;;;;;5093105;28;20044;-71
2022/05/17 02:29:42;;;;;;;21.23;7.83;;;;;;;;;;5093925;28;20609;-71
2022/05/17 02:32:08;;;;;;;17.83;7.33;;;;;;;;;;5094027;28;20140;-71
2022/05/17 02:34:36;;;;;;;20.23;7.37;;;;;;;;;;5075834;28;20297;-71
2022/05/17 02:37:03;;;;;;;18.57;6.80;;;;;;;;;;5094072;28;20373;-71
2022/05/17 02:39:29;;;;;;;20.20;6.80;;;;;;;;;;5092621;28;20306;-72
2022/05/17 02:41:55;;;;;;;24.10;7.17;;;;;;;;;;5092800;28;20765;-71
2022/05/17 02:44:21;;;;;;;21.57;6.97;;;;;;;;;;5093892;28;20278;-71
2022/05/17 02:46:47;;;;;;;15.07;6.63;;;;;;;;;;5093598;28;20706;-71
2022/05/17 02:49:13;;;;;;;17.43;7.53;;;;;;;;;;5093753;28;20671;-71
2022/05/17 02:51:39;;;;;;;19.83;7.20;;;15.00;99.90;;;;;;5093608;28;20343;-71
2022/05/17 02:54:07;;;;;;;24.53;7.60;;;14.90;99.90;;;;;;5093795;28;20282;-71
2022/05/17 02:56:33;;;;;;;19.93;6.47;;;14.90;99.90;;;;;;5093423;28;20056;-71
2022/05/17 02:59:00;;;;;;;19.07;7.70;;;14.90;99.90;;;;;;5092649;28;20290;-71
2022/05/17 03:01:25;;;;;;;20.67;7.10;;;14.80;99.90;;;;;;5093431;28;20281;-71
2022/05/17 03:03:51;;;;;;;19.63;6.83;;;14.80;99.90;;;;;;5093186;28;20286;-71
2022/05/17 03:06:17;;;;;;;15.47;7.07;;;14.80;99.90;;;;;;5093533;28;20055;-71
2022/05/17 03:08:42;;;;;;;18.70;6.80;;;14.70;99.90;;;;;;5093311;28;20054;-71
2022/05/17 03:11:10;;;;;;;18.60;7.33;;;14.70;99.90;;;;;;5093465;28;20476;-72
2022/05/17 03:13:36;;;;;;;18.77;7.63;;;14.70;99.90;;;;;;5092116;28;20044;-71
2022/05/17 03:16:03;;;;;;;15.53;6.87;;;14.60;99.90;;;;;;5092075;28;20325;-71
2022/05/17 03:18:29;;;;;;;23.63;7.80;;;14.60;99.90;;;;;;5092936;28;20773;-74
2022/05/17 03:20:54;;;;;;;18.27;7.13;;;14.60;99.90;;;;;;5093063;28;20285;-72
2022/05/17 03:23:20;;;;;;;16.47;7.03;;;14.60;99.90;;;;;;5093409;28;20404;-71
2022/05/17 03:25:46;;;;;;;15.60;7.27;;;14.60;99.90;;;;;;5091760;28;20040;-71
2022/05/17 03:28:13;;;;;;;13.53;6.30;;;14.60;99.90;;;;;;5093262;28;20043;-71
2022/05/17 03:30:39;;;;;;;16.77;7.50;;;14.60;99.90;;;;;;5091595;28;20462;-72
2022/05/17 03:33:06;;;;;;;18.90;7.23;;;14.60;99.90;;;;;;5093141;28;20318;-71
2022/05/17 03:35:32;;;;;;;18.47;7.47;;;14.60;99.90;;;;;;5092918;28;20293;-74
2022/05/17 03:37:57;;;;;;;20.30;7.70;;;14.50;99.90;;;;;;5092556;28;20312;-72
2022/05/17 03:40:24;;;;;;;15.43;7.33;;;14.60;99.90;;;;;;5093167;28;20290;-71
2022/05/17 03:42:50;;;;;;;15.90;5.90;;;14.60;99.90;;;;;;5092646;28;20329;-72
2022/05/17 03:45:16;;;;;;;18.47;7.13;;;14.60;99.90;;;;;;5092988;28;20317;-70
2022/05/17 03:47:42;;;;;;;17.63;6.83;;;14.60;99.90;;;;;;5092476;28;20054;-71
2022/05/17 03:50:09;;;;;;;22.20;7.87;;;14.60;99.90;;;;;;5092787;28;20108;-71
2022/05/17 03:52:34;;;;;;;19.07;8.20;;;14.60;99.90;;;;;;5092726;28;20040;-72
2022/05/17 03:55:02;;;;;;;19.73;7.17;;;14.60;99.90;;;;;;5092986;28;20733;-71
2022/05/17 03:57:28;;;;;;;16.93;6.73;;;14.60;99.90;;;;;;5091794;28;20083;-71
2022/05/17 03:59:54;;;;;;;15.30;6.87;;;14.60;99.90;;;;;;5074360;28;20344;-72
2022/05/17 04:02:22;;;;;;;16.57;6.93;;;14.60;99.90;;;;;;5092625;28;20278;-71
2022/05/17 04:04:51;;;;;;;16.20;7.47;;;14.60;99.90;;;;;;5092604;28;20274;-72
2022/05/17 04:07:16;;;;;;;18.60;7.03;;;14.70;99.90;;;;;;5092744;28;20327;-72
2022/05/17 04:09:42;;;;;;;17.90;7.30;;;14.70;99.90;;;;;;5091214;28;20671;-72
2022/05/17 04:12:08;;;;;;;17.33;7.90;;;14.80;99.90;;;;;;5092715;28;20044;-71
2022/05/17 04:14:34;;;;;;;17.67;7.07;;;14.80;99.90;;;;;;5092552;28;20403;-71
2022/05/17 04:17:00;;;;;;;21.13;7.77;;;14.80;99.90;;;;;;5092519;28;20277;-71
2022/05/17 04:19:25;;;;;;;18.27;7.50;;;14.80;99.90;;;;;;5092826;28;20049;-71
2022/05/17 04:21:51;;;;;;;18.07;7.67;;;14.80;99.90;;;;;;5092315;28;20051;-72
2022/05/17 04:24:17;;;;;;;20.07;8.13;;;14.90;99.90;;;;;;5092791;28;20150;-72
2022/05/17 04:26:43;;;;;;;18.00;7.17;;;14.90;99.90;;;;;;5092270;28;20048;-71
2022/05/17 04:29:09;;;;;;;16.93;6.87;;;14.90;99.90;;;;;;5092429;28;20040;-71
2022/05/17 04:31:36;;;;;;;19.87;6.53;;;15.00;99.90;;;;;;5094273;28;20051;-71
2022/05/17 04:34:03;;;;;;;21.70;7.13;;;15.00;99.90;;;;;;5096471;28;20328;-71
2022/05/17 04:36:29;;;;;;;14.80;7.63;;;15.10;99.90;;;;;;5096390;28;20327;-71
2022/05/17 04:38:55;;;;;;;20.47;7.90;;;15.10;99.90;;;;;;5095750;28;20305;-71
2022/05/17 04:41:21;;;;;;;17.43;6.73;;;15.10;99.90;;;;;;5095404;28;20282;-71
2022/05/17 04:43:47;;;;;;;23.73;8.07;;;15.10;99.90;;;;;;5095910;28;20335;-71
2022/05/17 04:46:13;;;;;;;19.07;7.33;;;15.10;99.90;;;;;;5096036;28;20117;-71
2022/05/17 04:48:39;;;;;;;19.03;7.60;;;15.10;99.90;;;;;;5095734;28;20286;-74
2022/05/17 04:51:10;;;;;;;20.83;6.77;;;15.10;99.90;;;;;;5096180;28;20040;-71
2022/05/17 04:53:37;;;;;;;19.23;6.43;;;15.20;99.90;;;;;;5094954;28;20044;-71
2022/05/17 04:56:04;;;;;;;18.03;7.33;;;15.20;99.90;;;;;;5095674;28;20607;-71
2022/05/17 04:58:30;;;;;;;18.27;6.53;;;15.20;99.90;;;;;;5095734;28;20372;-71
2022/05/17 05:00:55;;;;;;;17.27;6.83;;;15.30;99.90;;;;;;5095850;28;20358;-71
2022/05/17 05:03:21;;;;;;;17.03;6.57;;;15.40;99.90;;;;;;5095968;28;20494;-71
2022/05/17 05:05:47;;;;;;;18.93;6.63;;;15.60;99.90;;;;;;5095584;28;20548;-71
2022/05/17 05:08:13;;;;;;;19.77;6.20;;;15.70;99.90;;;;;;5094941;28;20373;-71
2022/05/17 05:10:42;;;;;;;21.83;7.43;;;;;;;;;;5095734;28;20281;-71
2022/05/17 05:13:11;;;;;;;17.83;7.10;;;;;;;;;;5095655;28;20051;-71
2022/05/17 05:15:37;;;;;;;16.57;6.13;;;16.40;99.90;;;;;;5095853;28;20286;-71
2022/05/17 05:18:03;;;;;;;14.50;6.37;;;16.40;99.90;;;;;;5095333;28;20796;-71
2022/05/17 05:20:30;;;;;;;16.97;6.27;;;16.50;99.90;;;;;;5094456;28;20052;-71
2022/05/17 05:22:56;;;;;;;17.47;5.80;;;16.70;99.90;;;;;;5095341;28;20052;-71
2022/05/17 05:25:22;;;;;;;18.97;6.23;;;16.90;99.90;;;;;;5094134;28;20166;-71
2022/05/17 05:27:48;;;;;;;21.20;6.17;;;17.10;99.90;;;;;;5094684;28;20050;-71
2022/05/17 05:30:15;;;;;;;18.97;6.03;;;17.40;99.90;;;;;;5095498;28;20122;-71
2022/05/17 05:32:41;;;;;;;16.57;5.70;;;17.50;99.90;;;;;;5095362;28;20468;-71
2022/05/17 05:35:08;;;;;;;15.43;4.70;;;17.70;99.90;;;;;;5095068;28;20484;-71
2022/05/17 05:37:33;;;;;;;16.87;5.37;;;17.90;99.90;;;;;;5095142;28;20079;-71
2022/05/17 05:39:59;;;;;;;22.17;5.87;;;18.00;99.90;;;;;;5094766;28;20110;-72
2022/05/17 05:42:25;;;;;;;19.00;5.33;;;18.10;99.90;;;;;;5094550;28;20101;-72
2022/05/17 05:44:50;;;;;;;16.07;5.50;;;18.10;99.90;;;;;;5094952;28;20055;-71
2022/05/17 05:47:16;;;;;;;14.17;4.53;;;18.20;99.90;;;;;;5093823;28;20043;-71
2022/05/17 05:49:42;;;;;;;16.83;5.47;;;18.40;99.90;;;;;;5095001;28;20055;-72
2022/05/17 05:52:08;;;;;;;14.07;5.07;;;;;;;;;;5094676;28;20044;-72
2022/05/17 05:54:33;;;;;;;19.17;6.10;;;19.00;99.90;;;;;;5094842;28;20044;-72
2022/05/17 05:57:00;;;;;;;13.50;5.30;;;19.20;99.90;;;;;;5094410;28;20044;-71
2022/05/17 05:59:28;;;;;;;16.60;4.77;;;19.50;99.90;;;;;;5095067;28;20044;-72
2022/05/17 06:01:54;;;;;;;13.00;4.93;;;19.90;99.90;;;;;;5094591;28;20054;-72
2022/05/17 06:04:20;;;;;;;12.13;4.57;;;20.50;99.90;;;;;;5093587;28;20043;-72
2022/05/17 06:06:45;;;;;;;15.90;4.93;;;21.10;99.90;;;;;;5094643;28;20067;-72
2022/05/17 06:09:11;;;;;;;15.87;5.17;;;21.70;99.90;;;;;;5093185;28;20142;-73
2022/05/17 06:11:37;;;;;;;15.70;5.47;;;22.10;99.90;;;;;;5094493;28;20044;-74
2022/05/17 06:14:03;;;;;;;19.70;6.23;;;22.20;99.90;;;;;;5094370;28;20052;-75
2022/05/17 06:16:29;;;;;;;14.63;4.90;;;22.10;99.90;;;;;;5094288;28;20479;-76
2022/05/17 06:18:55;;;;;;;13.10;5.20;;;;;;;;;;5093993;28;20040;-75
2022/05/17 06:21:21;;;;;;;13.77;5.27;;;22.50;99.90;;;;;;5094345;28;20051;-75
2022/05/17 06:23:49;;;;;;;18.37;5.80;;;23.00;99.90;;;;;;5094307;28;20092;-74
2022/05/17 06:26:15;;;;;;;14.23;5.17;;;23.50;99.90;;;;;;5094298;28;20445;-75
2022/05/17 06:28:40;;;;;;;13.30;5.00;;;24.00;99.90;;;;;;5094529;28;20089;-75
2022/05/17 06:31:06;;;;;;;14.10;4.97;;;;;;;;;;5094177;28;20044;-75
2022/05/17 06:33:32;;;;;;;16.10;4.97;;;25.20;92.90;;;;;;5094536;28;20101;-72
2022/05/17 06:35:58;;;;;;;16.20;5.87;;;26.00;92.90;;;;;;5094039;28;20509;-72
2022/05/17 06:38:24;;;;;;;20.20;5.50;;;;;;;;;;5092892;28;20052;-72
2022/05/17 06:40:51;;;;;;;15.00;4.57;;;;;;;;;;5092837;28;20208;-72
2022/05/17 06:43:17;;;;;;;14.73;4.53;;;;;;;;;;5094160;28;20048;-73
2022/05/17 06:45:43;;;;;;;11.60;4.20;;;27.60;94.50;;;;;;5094108;28;20048;-73
2022/05/17 06:48:09;;;;;;;14.50;4.70;;;28.20;69.90;;;;;;5092729;28;20054;-73
2022/05/17 06:50:36;;;;;;;14.60;4.67;;;;;;;;;;5093978;28;20506;-73
2022/05/17 06:53:07;;;;;;;15.00;5.10;;;;;;;;;;5093646;28;20052;-73
2022/05/17 06:55:33;;;;;;;12.40;4.53;;;28.20;56.30;;;;;;5093086;28;20052;-73
2022/05/17 06:57:59;;;;;;;13.40;4.33;;;;;;;;;;5093626;28;20124;-73
2022/05/17 07:00:26;;;;;;;15.35;5.28;;;;;;;;;;5093606;28;20488;-73
2022/05/17 07:02:52;;;;;;;13.13;4.78;;;29.20;91.10;;;;;;5093668;28;20411;-73
2022/05/17 07:05:18;;;;;;;11.98;4.57;;;;;;;;;;5093425;28;20131;-73
2022/05/17 07:07:44;;;;;;;16.23;4.70;;;;;;;;;;5093589;28;20123;-75
2022/05/17 07:13:08;;;;;;;13.23;5.25;;;;;;;;;;5093406;28;20511;-74
2022/05/17 07:15:34;;;;;;;11.35;4.60;;;;;;;;;;5093629;28;20113;-74
2022/05/17 07:18:00;;;;;;;12.70;4.65;;;;;;;;;;5093282;28;20048;-74
2022/05/17 07:20:27;;;;;;;13.60;5.32;;;30.50;85.90;;;;;;5093610;28;20047;-74
2022/05/17 07:22:53;;;;;;;11.75;4.78;;;30.80;76.50;;;;;;5093470;28;20079;-74
2022/05/17 07:25:19;;;;;;;13.68;4.97;;;;;;;;;;5093334;28;20399;-75
2022/05/17 07:27:45;;;;;;;12.65;4.70;;;;;;;;;;5093452;28;20056;-75
2022/05/17 07:30:12;;;;;;;14.93;4.53;;;;;;;;;;5093049;28;20506;-75
2022/05/17 07:32:38;;;;;;;12.45;4.47;;;;;;;;;;5091966;28;20047;-75
2022/05/17 07:35:06;;;;;;;12.85;4.43;;;;;;;;;;5093166;28;20044;-75
2022/05/17 07:37:33;;;;;;;11.30;4.30;;;;;;;;;;5092182;28;20075;-72
2022/05/17 07:39:59;;;;;;;14.32;4.82;;;;;;;;;;5092885;28;20068;-74
2022/05/17 07:42:25;;;;;;;14.07;5.05;;;;;;;;;;5093299;28;20048;-73
2022/05/17 07:44:52;;;;;;;14.13;5.10;;;;;;;;;;5093270;28;20131;-74
2022/05/17 07:47:17;;;;;;;11.05;4.20;;;32.40;41.20;;;;;;5092775;28;20132;-74
2022/05/17 07:49:43;;;;;;;13.77;4.88;;;32.40;42.40;;;;;;5091766;28;20130;-74
2022/05/17 07:52:10;;;;;;;12.45;5.10;;;32.30;42.80;;;;;;5092946;28;20036;-74
2022/05/17 07:54:37;;;;;;;13.63;5.18;;;32.70;42.60;;;;;;5093186;28;20044;-74
2022/05/17 07:57:04;;;;;;;12.40;4.57;;;32.90;42.50;;;;;;5091816;28;20046;-74
2022/05/17 07:59:31;;;;;;;11.73;5.40;;;;;;;;;;5091633;28;20043;-74
2022/05/17 08:01:57;;;;;;;12.07;4.35;;;;;;;;;;5091576;28;20494;-74
2022/05/17 08:04:29;;;;;;;14.27;5.30;;;33.50;77.60;;;;;;5091634;28;20055;-74
2022/05/17 08:06:56;;;;;;;10.27;4.70;;;33.90;40.20;;;;;;5095347;28;20044;-74
2022/05/17 08:09:23;;;;;;;12.70;5.13;;;33.90;40.30;;;;;;5096824;28;20396;-74
2022/05/17 08:11:50;;;;;;;11.35;4.90;;;33.90;40.10;;;;;;5096101;28;20048;-74
2022/05/17 08:14:16;;;;;;;12.25;4.63;;;34.10;39.80;;;;;;5096767;28;20079;-74
2022/05/17 08:16:42;;;;;;;10.23;5.03;;;33.90;39.80;;;;;;5096768;28;20043;-74
2022/05/17 08:19:09;;;;;;;11.55;4.47;;;33.90;40.10;;;;;;5096771;28;20047;-74
2022/05/17 08:21:36;;;;;;;11.02;4.90;;;34.10;39.60;;;;;;5096918;28;20081;-74
2022/05/17 08:24:02;;;;;;;13.48;4.70;;;33.90;39.40;;;;;;5096791;28;20040;-74
2022/05/17 08:29:14;;;;;;;20.05;4.70;;;32.80;77.00;;;;;;5096349;28;20056;-74
2022/05/17 08:31:40;;;;;;;10.43;4.03;;;;;;;;;;5096762;28;20048;-74
2022/05/17 08:34:08;;;;;;;10.88;4.18;;;;;;;;;;5096527;28;20132;-74
2022/05/17 08:36:34;;;;;;;11.02;4.40;;;;;;;;;;5096605;28;20052;-74
2022/05/17 08:39:00;;;;;;;13.55;4.88;;;30.20;74.90;;;;;;5096503;28;20056;-73
2022/05/17 08:41:29;;;;;;;13.57;5.10;;;;;;;;;;5096277;28;20048;-74
2022/05/17 08:44:08;;;;;;;12.77;4.65;;;28.90;59.80;;;;;;5096322;28;20093;-73
2022/05/17 08:46:37;;;;;;;10.77;4.45;;;;;;;;;;5095627;28;20044;-73
2022/05/17 08:49:16;;;;;;;8.70;3.90;;;;;;;;;;5096481;28;20461;-74
2022/05/17 08:51:46;;;;;;;12.07;4.57;;;27.90;62.70;;;;;;5096172;28;20044;-74
2022/05/17 08:54:15;;;;;;;12.98;4.13;;;;;;;;;;5095855;28;20126;-74
2022/05/17 08:56:47;;;;;;;13.07;4.90;;;27.80;75.70;;;;;;5096357;28;20050;-74
2022/05/17 08:59:15;;;;;;;11.40;3.97;;;;;;;;;;5096117;28;20050;-74
2022/05/17 09:01:45;;;;;;;12.57;3.60;;;;;;;;;;5096305;28;20044;-74
2022/05/17 09:04:45;;;;;;;14.50;4.15;;;27.00;48.10;;;;;;5096011;28;20055;-74
2022/05/17 09:07:24;;;;;;;14.23;4.15;;;27.00;48.70;;;;;;5096036;28;20472;-74
2022/05/17 09:10:04;;;;;;;13.63;3.97;;;26.70;49.30;;;;;;5095988;28;20078;-74
2022/05/17 09:13:02;;;;;;;12.35;3.88;;;26.60;50.20;;;;;;5095717;28;20043;-74
2022/05/17 09:15:28;;;;;;;11.43;4.43;;;26.60;50.20;;;;;;5095764;28;20082;-74
2022/05/17 09:17:57;;;;;;;10.50;4.55;;;26.50;49.90;;;;;;5094669;28;20128;-74
2022/05/17 09:20:30;;;;;;;11.20;3.95;;;26.40;50.60;;;;;;5095523;28;20063;-74
2022/05/17 09:22:56;;;;;;;15.48;4.07;;;;;;;;;;5095733;28;20070;-74
2022/05/17 09:25:27;;;;;;;12.65;3.97;;;;;;;;;;5095432;28;20052;-74
2022/05/17 09:27:54;;;;;;;15.70;4.28;;;;;;;;;;5095884;28;20075;-74
2022/05/17 09:30:23;;;;;;;13.18;3.50;;;26.10;51.20;;;;;;5095604;28;20105;-74
2022/05/17 09:32:59;;;;;;;11.75;3.83;;;26.10;51.80;;;;;;5095441;28;20586;-74
2022/05/17 09:35:25;;;;;;;13.35;4.03;;;26.00;52.70;;;;;;5095320;28;20040;-74
2022/05/17 09:37:52;;;;;;;12.87;4.00;;;;;;;;;;5094877;28;20052;-74
2022/05/17 09:40:23;;;;;;;11.77;3.47;;;;;;;;;;5095268;28;20058;-75
2022/05/17 09:42:59;;;;;;;12.63;4.67;;;25.60;83.70;;;;;;5095344;28;20051;-74
2022/05/17 09:45:45;;;;;;;11.73;3.70;;;25.80;86.50;;;;;;5095033;28;20044;-74
2022/05/17 09:48:13;;;;;;;13.60;3.95;;;25.60;88.50;;;;;;5094793;28;20051;-76
2022/05/17 09:53:47;;;;;;;13.03;4.20;;;25.20;91.70;;;;;;5095004;28;20056;-74
2022/05/17 09:56:16;;;;;;;15.17;4.20;;;25.40;59.90;;;;;;5094864;28;20055;-74
2022/05/17 09:58:44;;;;;;;15.80;4.27;;;25.10;54.60;;;;;;5094914;28;20039;-74
2022/05/17 10:01:19;;;;;;;14.40;4.30;;;25.00;55.00;;;;;;5095065;28;20052;-74
2022/05/17 10:04:13;;;;;;;12.10;4.00;;;25.00;56.20;;;;;;5094839;28;20503;-74
2022/05/17 10:06:53;;;;;;;10.97;3.67;;;24.90;55.50;;;;;;5094995;28;20043;-74
2022/05/17 10:09:32;;;;;;;15.27;4.37;;;24.90;55.50;;;;;;5093323;28;20147;-74
2022/05/17 10:12:09;;;;;;;10.73;3.33;;;24.80;55.90;;;;;;5093954;28;20058;-74
2022/05/17 10:15:05;;;;;;;11.07;3.63;;;24.80;56.00;;;;;;5093609;28;20394;-74
2022/05/17 10:17:45;;;;;;;12.80;3.70;;;24.70;56.30;;;;;;5093668;28;20389;-74
2022/05/17 10:20:37;;;;;;;12.33;3.77;;;24.70;56.30;;;;;;5094858;28;20040;-74
2022/05/17 10:23:08;;;;;;;16.47;4.10;;;24.60;57.10;;;;;;5094713;28;20052;-74
2022/05/17 10:25:49;;;;;;;11.37;3.77;;;24.50;56.20;;;;;;5094259;28;20052;-74
2022/05/17 10:28:35;;;;;;;14.70;3.80;;;24.50;56.50;;;;;;5093643;28;20056;-74
2022/05/17 10:31:16;;;;;;;10.17;3.60;;;24.40;56.40;;;;;;5093434;28;20093;-74
2022/05/17 10:33:50;;;;;;;11.33;3.27;;;24.40;56.30;;;;;;5094358;28;20043;-74
2022/05/17 10:36:27;;;;;;;10.37;3.13;;;24.40;55.90;;;;;;5093964;28;20164;-76
2022/05/17 10:39:16;;;;;;;12.43;3.30;;;24.40;54.90;;;;;;5094369;28;20553;-74
2022/05/17 10:41:42;;;;;;;11.63;2.90;;;24.40;54.60;;;;;;5090065;28;20479;-74
2022/05/17 10:44:13;;;;;;;10.40;3.00;;;24.30;53.50;;;;;;5094177;28;20130;-74
2022/05/17 10:46:47;;;;;;;8.63;2.37;;;24.30;53.10;;;;;;5092636;28;20040;-74
2022/05/17 10:49:16;;;;;;;10.90;2.42;;;24.30;53.30;;;;;;5094234;28;20083;-74
2022/05/17 10:52:14;;;;;;;9.57;2.77;;;24.30;53.00;;;;;;5093645;28;20423;-74
2022/05/17 10:54:41;;;;;;;10.67;2.90;;;24.20;51.90;;;;;;5092801;28;20385;-74
2022/05/17 10:57:39;;;;;;;9.73;2.80;;;24.00;52.10;;;;;;5092798;28;20056;-74
2022/05/17 11:00:19;;;;;;;11.80;3.40;;;24.00;52.60;;;;;;5089232;28;20117;-74
2022/05/17 11:03:10;;;;;;;11.50;3.17;;;24.00;52.60;;;;;;5094046;28;20043;-74
2022/05/17 11:05:38;;;;;;;10.80;2.97;;;23.90;52.70;;;;;;5092598;28;20483;-74
2022/05/17 11:08:25;;;;;;;12.60;3.37;;;23.90;52.30;;;;;;5093822;28;20055;-74
2022/05/17 11:11:03;;;;;;;11.90;3.10;;;23.90;51.90;;;;;;5093761;28;20040;-74
2022/05/17 11:13:31;;;;;;;10.33;3.00;;;23.90;51.80;;;;;;5093411;28;20048;-74
2022/05/17 11:16:29;;;;;;;11.50;2.60;;;23.80;51.30;;;;;;5093452;28;20096;-74
2022/05/17 11:19:07;;;;;;;8.03;2.47;;;23.80;50.90;;;;;;5091678;28;20040;-74
2022/05/17 11:21:50;;;;;;;10.27;2.70;;;23.70;51.50;;;;;;5093287;28;20048;-74
2022/05/17 11:25:03;;;;;;;11.30;2.90;;;23.70;51.70;;;;;;5093377;28;20082;-74
2022/05/17 11:27:37;;;;;;;11.67;3.10;;;23.80;52.30;;;;;;5090808;28;20047;-74
2022/05/17 11:30:17;;;;;;;10.90;3.63;;;23.80;52.00;;;;;;5093425;28;20052;-74
2022/05/17 11:33:21;;;;;;;8.20;2.40;;;23.70;51.30;;;;;;5092021;28;20052;-74
2022/05/17 11:35:53;;;;;;;11.30;2.80;;;23.80;50.00;;;;;;5093312;28;20055;-74
2022/05/17 11:38:37;;;;;;;10.83;2.63;;;23.80;50.00;;;;;;5093078;28;20131;-74
2022/05/17 11:41:07;;;;;;;10.60;2.38;;;23.80;50.30;;;;;;5092501;28;20060;-74
2022/05/17 11:43:43;;;;;;;8.40;2.40;;;23.80;50.00;;;;;;5093215;28;20117;-74
2022/05/17 11:46:24;;;;;;;7.33;2.63;;;23.90;49.60;;;;;;5093244;28;20051;-74
2022/05/17 11:49:13;;;;;;;6.30;2.00;;;23.90;48.50;;;;;;5091973;28;20093;-74
2022/05/17 11:51:59;;;;;;;7.13;2.10;;;23.90;47.90;;;;;;5086292;28;20048;-74
2022/05/17 11:54:42;;;;;;;9.87;2.67;;;23.80;47.00;;;;;;5092964;28;20132;-73
2022/05/17 11:57:32;;;;;;;7.87;2.40;;;23.80;46.80;;;;;;5092904;28;20056;-74
2022/05/17 12:00:04;;;;;;;9.70;2.37;;;23.80;47.10;;;;;;5073009;28;20052;-74
2022/05/17 12:02:52;;;;;;;7.33;2.00;;;23.80;46.70;;;;;;5092965;28;20126;-74
2022/05/17 12:05:37;;;;;;;7.20;2.30;;;23.80;46.50;;;;;;5092944;28;20040;-74
2022/05/17 12:08:39;;;;;;;7.07;1.95;;;23.70;44.80;;;;;;5092770;28;20060;-74
2022/05/17 12:11:14;;;;;;;6.50;1.63;;;23.70;44.50;;;;;;5093150;28;20052;-74
2022/05/17 12:14:15;;;;;;;7.23;2.27;;;23.70;45.30;;;;;;5091337;28;20135;-74
2022/05/17 12:16:50;;;;;;;8.67;2.70;;;23.70;45.70;;;;;;5091532;28;20127;-74
2022/05/17 12:19:25;;;;;;;5.93;2.10;;;23.70;45.40;;;;;;5092970;28;20105;-74
2022/05/17 12:22:04;;;;;;;8.87;2.60;;;23.70;46.00;;;;;;5092577;28;20432;-74
2022/05/17 12:24:58;;;;;;;6.40;2.07;;;23.70;46.60;;;;;;5093151;28;20071;-74
2022/05/17 12:27:44;;;;;;;8.27;2.77;;;23.70;47.00;;;;;;5092901;28;20137;-73
2022/05/17 12:33:15;;;;;;;7.57;2.47;;;23.70;47.60;;;;;;5092466;28;20490;-73
2022/05/17 12:35:41;;;;;;;8.23;2.80;;;23.70;47.90;;;;;;5092626;28;20050;-73
2022/05/17 12:43:02;;;;;;;9.23;3.07;;;23.70;47.90;;;;;;5091543;28;20131;-73
2022/05/17 12:43:44;;;;;;;7.63;2.47;;;23.80;47.40;;;;;;5092279;28;20606;-73
2022/05/17 12:46:17;;;;;;;8.33;2.43;;;23.70;47.90;;;;;;5092967;28;20051;-74
2022/05/17 12:48:48;;;;;;;7.70;2.10;;;23.70;50.70;;;;;;5092436;28;20040;-74
2022/05/17 12:51:20;;;;;;;7.60;2.40;;;23.60;47.70;;;;;;5092643;28;20044;-73
2022/05/17 12:53:49;;;;;;;6.47;1.73;;;23.60;47.60;;;;;;5095721;28;20048;-74
2022/05/17 12:56:22;;;;;;;6.03;2.03;;;23.60;47.50;;;;;;5096166;28;20044;-73
2022/05/17 12:58:57;;;;;;;6.50;2.03;;;23.60;47.20;;;;;;5096037;28;20071;-73
2022/05/17 13:01:33;;;;;;;8.60;2.23;;;23.60;47.30;;;;;;5096283;28;20077;-73
2022/05/17 13:04:07;;;;;;;10.43;2.90;;;23.60;47.30;;;;;;5096166;28;20411;-73
2022/05/17 13:06:48;;;;;;;6.50;2.13;;;23.50;47.40;;;;;;5077856;28;20399;-76
2022/05/17 13:09:28;;;;;;;9.93;2.20;;;23.50;48.00;;;;;;5095135;28;20126;-74
2022/05/17 13:11:56;;;;;;;7.73;1.97;;;23.50;47.90;;;;;;5095765;28;20052;-73
2022/05/17 13:14:27;;;;;;;8.77;2.70;;;23.60;47.50;;;;;;5095971;28;20056;-73
2022/05/17 13:17:05;;;;;;;8.83;2.10;;;23.60;47.60;;;;;;5095487;28;20400;-73
2022/05/17 13:19:33;;;;;;;7.90;2.53;;;23.70;48.10;;;;;;5094971;28;20072;-74
2022/05/17 13:21:59;;;;;;;8.90;2.87;;;23.70;48.00;;;;;;5094563;28;20051;-73
2022/05/17 13:24:44;;;;;;;8.43;2.53;;;23.70;47.90;;;;;;5095933;28;20560;-73
2022/05/17 13:27:27;;;;;;;7.63;2.20;;;23.60;47.40;;;;;;5095638;28;20407;-73
2022/05/17 13:30:00;;;;;;;7.70;2.03;;;23.60;47.70;;;;;;5095555;28;20083;-73
2022/05/17 13:32:33;;;;;;;8.80;3.10;;;23.60;47.80;;;;;;5095764;28;20075;-73
2022/05/17 13:35:19;;;;;;;10.30;2.63;;;23.60;48.60;;;;;;5095340;28;20051;-73
2022/05/17 13:37:57;;;;;;;7.30;2.20;;;23.50;49.40;;;;;;5095084;28;20044;-73
2022/05/17 13:40:59;;;;;;;11.47;3.00;;;23.50;49.60;;;;;;5095553;28;20116;-73